Risultati

Download risultati: TXT, XML IOF

Camp. Regionale Middle Trentino Alto Adige - 'Fase Provinciale Trofeo CONI'
M 55 - lunghezza: 3370mt - dislivello: 140mt
pos. cat. tempo Nome società p. LB p. CITA vel.
1M55 *00:33:39PAOLI GiorgioORIENTEERING PERGINE A.S....0:07:0300:33:39|3370|140|33.65
2M55 *00:38:00CASAGRANDE EnricoORIENTEERING PERGINE A.S....0:07:5700:38:00|3370|140|38.00
3M55 *00:38:38CAVAZZANI AugustoORIENTEERING PERGINE A.S....0:08:0500:38:38|3370|140|38.63
4M55 *00:38:47PRADEL RobertoU.S. PRIMIERO A.S.D.0:08:0700:38:47|3370|140|38.78
5M55 *00:40:25ZONATO StefanoASD LESSINIA ORIENTEERING...0:08:2800:40:25|3370|140|40.42
6M55 *00:41:45CURZIO LeonardoORIENTAMONDO IVREA ASD0:08:4500:41:45|3370|140|41.75
7M55 *00:42:35CHIUSOLE FranzSPORTCLUB MERAN A.S.D.0:08:5500:42:35|3370|140|42.58
8M55 *00:43:25CONCI AlessandroORIENTEERING CREA ROSSA A...0:09:0600:43:25|3370|140|43.42
9M55 *00:48:31BETTEGA AdrianoA.S.D. G.S. PAVIONE0:10:1000:48:31|3370|140|48.52
10M55 *00:52:15LESO ValerioASD LESSINIA ORIENTEERING...0:10:5700:52:15|3370|140|52.25
11M55 *00:53:44DECARLI PaoloA.D. TRENT-O0:11:1500:53:44|3370|140|53.73
12M55 *00:59:31MAFFEI LuigiA.D. TRENT-O0:12:2800:59:31|3370|140|59.52
13M55 *01:01:13CLEMENTE MauroSSD Gaja - Sezione Orient...0:12:5001:01:13|3370|140|61.22
14M55 *01:02:45CORBO AlessandroA.S.D. ORIENT EXPRESS VER...0:13:0901:02:45|3370|140|62.75
15M55 *01:10:18FATTOR ManlioORIENTEERING DOLOMITI ASD0:14:4401:10:18|3370|140|70.30
16M55 *01:17:16PEZZÉ RobertoGRONLAIT ORIENTEERING TEA...0:16:1101:17:16|3370|140|77.27
17M55 *01:20:43GASSER MartinSPORTCLUB MERAN A.S.D.0:16:5501:20:43|3370|140|80.72
18M55 *01:27:14FREGO EnricoGRUPPO ORIENTISTI BOLZANO0:18:1701:27:14|3370|140|87.23
NPM55 *00:00:00TRENTIN DaniloPANDA ORIENTEERING VALS. ...0:00:0000:00:00|3370|140|0.00
NPM55 *00:00:00ORLER Melchiorre LinoU.S. PRIMIERO A.S.D.0:00:0000:00:00|3370|140|0.00
RIM55 *00:00:00BIROLI GianniA.S.D. ORIENT EXPRESS VER...0:00:0000:00:00|3370|140|0.00
RIM55 *01:22:15TAUFER PieroU.S. PRIMIERO A.S.D.0:17:1401:22:15|3370|140|82.25
Risultati per pagina:

PARTNER UFFICIALI FISO